sensor_id;sensor_type;location;lat;lon;timestamp;P1;durP1;ratioP1;P2;durP2;ratioP2
82248;SDS011;71851;49.092;18.918;2024-02-26T00:02:44;11.90;;;7.95;;
82248;SDS011;71851;49.092;18.918;2024-02-26T00:05:45;14.05;;;8.38;;
82248;SDS011;71851;49.092;18.918;2024-02-26T00:08:45;12.43;;;8.00;;
82248;SDS011;71851;49.092;18.918;2024-02-26T00:11:45;13.30;;;9.48;;
82248;SDS011;71851;49.092;18.918;2024-02-26T00:14:46;12.35;;;7.63;;
82248;SDS011;71851;49.092;18.918;2024-02-26T00:17:48;15.25;;;7.72;;
82248;SDS011;71851;49.092;18.918;2024-02-26T00:20:48;10.90;;;6.82;;
82248;SDS011;71851;49.092;18.918;2024-02-26T00:23:49;10.70;;;7.25;;
82248;SDS011;71851;49.092;18.918;2024-02-26T00:26:51;11.10;;;7.20;;
82248;SDS011;71851;49.092;18.918;2024-02-26T00:29:54;11.23;;;6.28;;
82248;SDS011;71851;49.092;18.918;2024-02-26T00:32:55;8.98;;;6.32;;
82248;SDS011;71851;49.092;18.918;2024-02-26T00:35:55;9.48;;;6.70;;
82248;SDS011;71851;49.092;18.918;2024-02-26T00:38:55;11.93;;;7.55;;
82248;SDS011;71851;49.092;18.918;2024-02-26T00:41:56;11.27;;;7.00;;
82248;SDS011;71851;49.092;18.918;2024-02-26T00:44:57;11.25;;;6.90;;
82248;SDS011;71851;49.092;18.918;2024-02-26T00:47:58;11.48;;;7.15;;
82248;SDS011;71851;49.092;18.918;2024-02-26T00:51:01;9.02;;;6.63;;
82248;SDS011;71851;49.092;18.918;2024-02-26T00:54:01;10.13;;;7.55;;
82248;SDS011;71851;49.092;18.918;2024-02-26T00:57:03;15.93;;;9.57;;
82248;SDS011;71851;49.092;18.918;2024-02-26T01:00:04;27.10;;;15.20;;
82248;SDS011;71851;49.092;18.918;2024-02-26T01:03:05;23.77;;;13.98;;
82248;SDS011;71851;49.092;18.918;2024-02-26T01:06:05;21.73;;;11.48;;
82248;SDS011;71851;49.092;18.918;2024-02-26T01:09:06;17.73;;;10.35;;
82248;SDS011;71851;49.092;18.918;2024-02-26T01:12:06;19.20;;;11.02;;
82248;SDS011;71851;49.092;18.918;2024-02-26T01:15:07;19.13;;;11.45;;
82248;SDS011;71851;49.092;18.918;2024-02-26T01:18:08;20.55;;;12.70;;
82248;SDS011;71851;49.092;18.918;2024-02-26T01:21:10;16.60;;;10.20;;
82248;SDS011;71851;49.092;18.918;2024-02-26T01:24:10;17.52;;;9.70;;
82248;SDS011;71851;49.092;18.918;2024-02-26T01:27:11;15.00;;;8.43;;
82248;SDS011;71851;49.092;18.918;2024-02-26T01:30:12;13.07;;;9.30;;
82248;SDS011;71851;49.092;18.918;2024-02-26T01:33:14;14.57;;;10.77;;
82248;SDS011;71851;49.092;18.918;2024-02-26T01:36:15;15.90;;;10.05;;
82248;SDS011;71851;49.092;18.918;2024-02-26T01:39:15;16.00;;;10.25;;
82248;SDS011;71851;49.092;18.918;2024-02-26T01:42:15;14.15;;;10.07;;
82248;SDS011;71851;49.092;18.918;2024-02-26T01:45:16;10.52;;;7.57;;
82248;SDS011;71851;49.092;18.918;2024-02-26T01:48:23;12.82;;;8.85;;
82248;SDS011;71851;49.092;18.918;2024-02-26T01:51:26;10.57;;;7.18;;
82248;SDS011;71851;49.092;18.918;2024-02-26T01:54:27;12.13;;;7.85;;
82248;SDS011;71851;49.092;18.918;2024-02-26T01:57:28;14.18;;;8.68;;
82248;SDS011;71851;49.092;18.918;2024-02-26T02:00:28;13.68;;;8.15;;
82248;SDS011;71851;49.092;18.918;2024-02-26T02:03:29;17.52;;;9.25;;
82248;SDS011;71851;49.092;18.918;2024-02-26T02:06:30;19.05;;;11.60;;
82248;SDS011;71851;49.092;18.918;2024-02-26T02:09:33;19.48;;;11.02;;
82248;SDS011;71851;49.092;18.918;2024-02-26T02:12:33;17.48;;;10.68;;
82248;SDS011;71851;49.092;18.918;2024-02-26T02:15:34;16.52;;;10.68;;
82248;SDS011;71851;49.092;18.918;2024-02-26T02:18:35;14.15;;;9.05;;
82248;SDS011;71851;49.092;18.918;2024-02-26T02:21:36;14.82;;;8.65;;
82248;SDS011;71851;49.092;18.918;2024-02-26T02:24:36;13.52;;;9.32;;
82248;SDS011;71851;49.092;18.918;2024-02-26T02:27:37;14.73;;;8.13;;
82248;SDS011;71851;49.092;18.918;2024-02-26T02:30:39;13.18;;;8.15;;
82248;SDS011;71851;49.092;18.918;2024-02-26T02:33:40;11.52;;;8.30;;
82248;SDS011;71851;49.092;18.918;2024-02-26T02:36:48;12.68;;;7.72;;
82248;SDS011;71851;49.092;18.918;2024-02-26T02:39:52;10.65;;;7.22;;
82248;SDS011;71851;49.092;18.918;2024-02-26T02:42:54;10.23;;;7.15;;
82248;SDS011;71851;49.092;18.918;2024-02-26T02:45:55;12.07;;;7.68;;
82248;SDS011;71851;49.092;18.918;2024-02-26T02:48:55;11.43;;;7.47;;
82248;SDS011;71851;49.092;18.918;2024-02-26T02:51:56;13.00;;;7.63;;
82248;SDS011;71851;49.092;18.918;2024-02-26T02:54:57;12.20;;;8.30;;
82248;SDS011;71851;49.092;18.918;2024-02-26T02:57:58;13.18;;;7.13;;
82248;SDS011;71851;49.092;18.918;2024-02-26T03:00:58;12.48;;;6.82;;
82248;SDS011;71851;49.092;18.918;2024-02-26T03:04:00;12.93;;;7.13;;
82248;SDS011;71851;49.092;18.918;2024-02-26T03:07:01;10.50;;;7.50;;
82248;SDS011;71851;49.092;18.918;2024-02-26T03:10:06;9.52;;;6.93;;
82248;SDS011;71851;49.092;18.918;2024-02-26T03:13:07;11.27;;;6.93;;
82248;SDS011;71851;49.092;18.918;2024-02-26T03:16:08;10.40;;;6.20;;
82248;SDS011;71851;49.092;18.918;2024-02-26T03:19:08;10.75;;;6.95;;
82248;SDS011;71851;49.092;18.918;2024-02-26T03:22:08;9.55;;;6.80;;
82248;SDS011;71851;49.092;18.918;2024-02-26T03:25:09;8.77;;;6.10;;
82248;SDS011;71851;49.092;18.918;2024-02-26T03:28:09;8.48;;;5.72;;
82248;SDS011;71851;49.092;18.918;2024-02-26T03:31:10;7.88;;;5.40;;
82248;SDS011;71851;49.092;18.918;2024-02-26T03:34:10;10.00;;;5.97;;
82248;SDS011;71851;49.092;18.918;2024-02-26T03:37:12;10.00;;;5.50;;
82248;SDS011;71851;49.092;18.918;2024-02-26T03:40:13;8.10;;;5.18;;
82248;SDS011;71851;49.092;18.918;2024-02-26T03:43:16;7.93;;;5.13;;
82248;SDS011;71851;49.092;18.918;2024-02-26T03:46:17;7.88;;;6.13;;
82248;SDS011;71851;49.092;18.918;2024-02-26T03:49:18;8.95;;;5.05;;
82248;SDS011;71851;49.092;18.918;2024-02-26T03:52:19;8.85;;;4.78;;
82248;SDS011;71851;49.092;18.918;2024-02-26T03:55:19;8.18;;;4.50;;
82248;SDS011;71851;49.092;18.918;2024-02-26T03:58:24;7.22;;;4.68;;
82248;SDS011;71851;49.092;18.918;2024-02-26T04:01:25;9.90;;;5.22;;
82248;SDS011;71851;49.092;18.918;2024-02-26T04:04:26;10.65;;;5.97;;
82248;SDS011;71851;49.092;18.918;2024-02-26T04:07:26;10.13;;;5.43;;
82248;SDS011;71851;49.092;18.918;2024-02-26T04:10:27;11.50;;;7.18;;
82248;SDS011;71851;49.092;18.918;2024-02-26T04:13:28;11.95;;;6.43;;
82248;SDS011;71851;49.092;18.918;2024-02-26T04:16:30;12.32;;;7.00;;
82248;SDS011;71851;49.092;18.918;2024-02-26T04:19:30;9.00;;;5.45;;
82248;SDS011;71851;49.092;18.918;2024-02-26T04:22:32;14.68;;;6.90;;
82248;SDS011;71851;49.092;18.918;2024-02-26T04:25:33;10.32;;;6.53;;
82248;SDS011;71851;49.092;18.918;2024-02-26T04:28:34;12.38;;;8.10;;
82248;SDS011;71851;49.092;18.918;2024-02-26T04:31:34;12.48;;;7.47;;
82248;SDS011;71851;49.092;18.918;2024-02-26T04:34:35;9.63;;;5.53;;
82248;SDS011;71851;49.092;18.918;2024-02-26T04:37:35;14.40;;;6.30;;
82248;SDS011;71851;49.092;18.918;2024-02-26T04:40:35;11.23;;;5.60;;
82248;SDS011;71851;49.092;18.918;2024-02-26T04:43:37;8.07;;;4.35;;
82248;SDS011;71851;49.092;18.918;2024-02-26T04:46:41;9.15;;;5.07;;
82248;SDS011;71851;49.092;18.918;2024-02-26T04:49:42;8.63;;;4.60;;
82248;SDS011;71851;49.092;18.918;2024-02-26T04:52:42;7.50;;;4.50;;
82248;SDS011;71851;49.092;18.918;2024-02-26T04:55:43;7.93;;;5.30;;
82248;SDS011;71851;49.092;18.918;2024-02-26T04:58:43;6.30;;;4.50;;
82248;SDS011;71851;49.092;18.918;2024-02-26T05:01:44;7.70;;;5.10;;
82248;SDS011;71851;49.092;18.918;2024-02-26T05:04:44;7.60;;;5.07;;
82248;SDS011;71851;49.092;18.918;2024-02-26T05:07:44;7.45;;;4.80;;
82248;SDS011;71851;49.092;18.918;2024-02-26T05:10:45;8.20;;;4.70;;
82248;SDS011;71851;49.092;18.918;2024-02-26T05:13:47;8.65;;;4.85;;
82248;SDS011;71851;49.092;18.918;2024-02-26T05:16:48;8.27;;;4.72;;
82248;SDS011;71851;49.092;18.918;2024-02-26T05:19:48;7.57;;;4.70;;
82248;SDS011;71851;49.092;18.918;2024-02-26T05:22:49;8.00;;;4.97;;
82248;SDS011;71851;49.092;18.918;2024-02-26T05:25:49;8.30;;;5.47;;
82248;SDS011;71851;49.092;18.918;2024-02-26T05:28:50;10.35;;;5.80;;
82248;SDS011;71851;49.092;18.918;2024-02-26T05:31:50;10.00;;;5.97;;
82248;SDS011;71851;49.092;18.918;2024-02-26T05:34:51;12.85;;;6.00;;
82248;SDS011;71851;49.092;18.918;2024-02-26T05:37:51;9.55;;;6.13;;
82248;SDS011;71851;49.092;18.918;2024-02-26T05:40:52;11.32;;;6.60;;
82248;SDS011;71851;49.092;18.918;2024-02-26T05:43:53;13.02;;;7.03;;
82248;SDS011;71851;49.092;18.918;2024-02-26T05:46:53;12.52;;;6.57;;
82248;SDS011;71851;49.092;18.918;2024-02-26T05:49:54;20.35;;;10.20;;
82248;SDS011;71851;49.092;18.918;2024-02-26T05:52:55;13.55;;;6.60;;
82248;SDS011;71851;49.092;18.918;2024-02-26T05:55:55;18.23;;;9.10;;
82248;SDS011;71851;49.092;18.918;2024-02-26T05:58:56;16.85;;;8.85;;
82248;SDS011;71851;49.092;18.918;2024-02-26T06:01:56;14.82;;;9.00;;
82248;SDS011;71851;49.092;18.918;2024-02-26T06:04:57;16.08;;;9.23;;
82248;SDS011;71851;49.092;18.918;2024-02-26T06:07:58;17.83;;;10.43;;
82248;SDS011;71851;49.092;18.918;2024-02-26T06:11:04;16.80;;;10.85;;
82248;SDS011;71851;49.092;18.918;2024-02-26T06:14:06;16.65;;;9.85;;
82248;SDS011;71851;49.092;18.918;2024-02-26T06:17:07;14.48;;;10.75;;
82248;SDS011;71851;49.092;18.918;2024-02-26T06:20:08;19.02;;;12.15;;
82248;SDS011;71851;49.092;18.918;2024-02-26T06:23:12;17.85;;;11.68;;
82248;SDS011;71851;49.092;18.918;2024-02-26T06:26:13;16.83;;;9.55;;
82248;SDS011;71851;49.092;18.918;2024-02-26T06:29:14;16.23;;;10.02;;
82248;SDS011;71851;49.092;18.918;2024-02-26T06:32:15;15.80;;;9.82;;
82248;SDS011;71851;49.092;18.918;2024-02-26T06:35:15;17.67;;;9.05;;
82248;SDS011;71851;49.092;18.918;2024-02-26T06:38:15;23.08;;;10.38;;
82248;SDS011;71851;49.092;18.918;2024-02-26T06:41:17;19.17;;;11.05;;
82248;SDS011;71851;49.092;18.918;2024-02-26T06:44:18;18.35;;;10.80;;
82248;SDS011;71851;49.092;18.918;2024-02-26T06:47:20;18.05;;;11.70;;
82248;SDS011;71851;49.092;18.918;2024-02-26T06:50:22;22.83;;;13.38;;
82248;SDS011;71851;49.092;18.918;2024-02-26T06:53:22;19.08;;;10.45;;
82248;SDS011;71851;49.092;18.918;2024-02-26T06:56:23;17.05;;;10.93;;
82248;SDS011;71851;49.092;18.918;2024-02-26T06:59:23;17.15;;;11.80;;
82248;SDS011;71851;49.092;18.918;2024-02-26T07:02:25;15.57;;;10.60;;
82248;SDS011;71851;49.092;18.918;2024-02-26T07:05:27;16.55;;;11.07;;
82248;SDS011;71851;49.092;18.918;2024-02-26T07:08:27;17.33;;;11.23;;
82248;SDS011;71851;49.092;18.918;2024-02-26T07:11:30;17.15;;;10.43;;
82248;SDS011;71851;49.092;18.918;2024-02-26T07:14:31;16.10;;;10.70;;
82248;SDS011;71851;49.092;18.918;2024-02-26T07:17:32;18.27;;;10.50;;
82248;SDS011;71851;49.092;18.918;2024-02-26T07:20:34;18.48;;;11.55;;
82248;SDS011;71851;49.092;18.918;2024-02-26T07:23:35;18.02;;;10.77;;
82248;SDS011;71851;49.092;18.918;2024-02-26T07:26:35;18.27;;;11.77;;
82248;SDS011;71851;49.092;18.918;2024-02-26T07:29:36;21.08;;;12.13;;
82248;SDS011;71851;49.092;18.918;2024-02-26T07:32:36;22.25;;;12.43;;
82248;SDS011;71851;49.092;18.918;2024-02-26T07:35:37;20.33;;;12.82;;
82248;SDS011;71851;49.092;18.918;2024-02-26T07:38:38;17.45;;;12.23;;
82248;SDS011;71851;49.092;18.918;2024-02-26T07:41:39;18.85;;;12.05;;
82248;SDS011;71851;49.092;18.918;2024-02-26T07:44:39;19.90;;;11.10;;
82248;SDS011;71851;49.092;18.918;2024-02-26T07:47:44;28.80;;;16.10;;
82248;SDS011;71851;49.092;18.918;2024-02-26T07:50:44;26.77;;;14.68;;
82248;SDS011;71851;49.092;18.918;2024-02-26T07:53:45;22.98;;;12.77;;
82248;SDS011;71851;49.092;18.918;2024-02-26T07:56:47;18.33;;;11.57;;
82248;SDS011;71851;49.092;18.918;2024-02-26T07:59:47;28.38;;;14.90;;
82248;SDS011;71851;49.092;18.918;2024-02-26T08:02:49;24.77;;;14.05;;
82248;SDS011;71851;49.092;18.918;2024-02-26T08:05:50;25.88;;;13.27;;
82248;SDS011;71851;49.092;18.918;2024-02-26T08:08:51;18.42;;;11.23;;
82248;SDS011;71851;49.092;18.918;2024-02-26T08:11:52;19.90;;;12.07;;
82248;SDS011;71851;49.092;18.918;2024-02-26T08:14:52;30.23;;;17.08;;
82248;SDS011;71851;49.092;18.918;2024-02-26T08:17:54;25.27;;;14.52;;
82248;SDS011;71851;49.092;18.918;2024-02-26T08:20:54;23.10;;;12.98;;
82248;SDS011;71851;49.092;18.918;2024-02-26T08:23:54;25.67;;;14.00;;
82248;SDS011;71851;49.092;18.918;2024-02-26T08:26:55;28.80;;;14.95;;
82248;SDS011;71851;49.092;18.918;2024-02-26T08:29:55;36.35;;;16.58;;
82248;SDS011;71851;49.092;18.918;2024-02-26T08:32:56;33.55;;;14.20;;
82248;SDS011;71851;49.092;18.918;2024-02-26T08:35:57;27.90;;;13.43;;
82248;SDS011;71851;49.092;18.918;2024-02-26T08:38:58;25.38;;;15.48;;
82248;SDS011;71851;49.092;18.918;2024-02-26T08:41:58;26.23;;;15.05;;
82248;SDS011;71851;49.092;18.918;2024-02-26T08:44:59;30.42;;;13.93;;
82248;SDS011;71851;49.092;18.918;2024-02-26T08:48:01;26.65;;;14.73;;
82248;SDS011;71851;49.092;18.918;2024-02-26T08:51:04;30.08;;;15.77;;
82248;SDS011;71851;49.092;18.918;2024-02-26T08:54:09;25.17;;;15.15;;
82248;SDS011;71851;49.092;18.918;2024-02-26T08:57:09;28.88;;;15.65;;
82248;SDS011;71851;49.092;18.918;2024-02-26T09:00:10;26.60;;;15.63;;
82248;SDS011;71851;49.092;18.918;2024-02-26T09:03:11;26.05;;;15.52;;
82248;SDS011;71851;49.092;18.918;2024-02-26T09:06:14;26.55;;;13.85;;
82248;SDS011;71851;49.092;18.918;2024-02-26T09:09:15;24.30;;;13.88;;
82248;SDS011;71851;49.092;18.918;2024-02-26T09:12:15;21.25;;;11.70;;
82248;SDS011;71851;49.092;18.918;2024-02-26T09:15:17;19.02;;;12.18;;
82248;SDS011;71851;49.092;18.918;2024-02-26T09:18:18;20.00;;;11.73;;
82248;SDS011;71851;49.092;18.918;2024-02-26T09:21:18;20.15;;;11.63;;
82248;SDS011;71851;49.092;18.918;2024-02-26T09:24:24;19.15;;;9.68;;
82248;SDS011;71851;49.092;18.918;2024-02-26T09:27:25;18.10;;;12.20;;
82248;SDS011;71851;49.092;18.918;2024-02-26T09:30:25;20.48;;;11.10;;
82248;SDS011;71851;49.092;18.918;2024-02-26T09:33:26;18.23;;;11.68;;
82248;SDS011;71851;49.092;18.918;2024-02-26T09:36:26;20.35;;;11.43;;
82248;SDS011;71851;49.092;18.918;2024-02-26T09:39:27;22.25;;;11.85;;
82248;SDS011;71851;49.092;18.918;2024-02-26T09:42:28;21.00;;;12.18;;
82248;SDS011;71851;49.092;18.918;2024-02-26T09:45:32;18.15;;;9.88;;
82248;SDS011;71851;49.092;18.918;2024-02-26T09:48:33;19.80;;;9.20;;
82248;SDS011;71851;49.092;18.918;2024-02-26T09:51:36;17.65;;;10.02;;
82248;SDS011;71851;49.092;18.918;2024-02-26T09:54:37;18.00;;;10.82;;
82248;SDS011;71851;49.092;18.918;2024-02-26T09:57:38;14.30;;;8.98;;
82248;SDS011;71851;49.092;18.918;2024-02-26T10:00:46;16.90;;;11.38;;
82248;SDS011;71851;49.092;18.918;2024-02-26T10:03:54;14.55;;;8.63;;
82248;SDS011;71851;49.092;18.918;2024-02-26T10:06:56;18.35;;;10.07;;
82248;SDS011;71851;49.092;18.918;2024-02-26T10:10:00;13.23;;;9.38;;
82248;SDS011;71851;49.092;18.918;2024-02-26T10:13:00;14.68;;;7.65;;
82248;SDS011;71851;49.092;18.918;2024-02-26T10:16:02;11.38;;;8.48;;
82248;SDS011;71851;49.092;18.918;2024-02-26T10:19:03;12.65;;;7.85;;
82248;SDS011;71851;49.092;18.918;2024-02-26T10:22:04;11.82;;;7.00;;
82248;SDS011;71851;49.092;18.918;2024-02-26T10:25:04;28.20;;;14.13;;
82248;SDS011;71851;49.092;18.918;2024-02-26T10:28:05;12.20;;;8.05;;
82248;SDS011;71851;49.092;18.918;2024-02-26T10:31:07;10.10;;;6.45;;
82248;SDS011;71851;49.092;18.918;2024-02-26T10:34:08;12.68;;;7.22;;
82248;SDS011;71851;49.092;18.918;2024-02-26T10:37:09;13.50;;;8.70;;
82248;SDS011;71851;49.092;18.918;2024-02-26T10:40:10;11.23;;;6.53;;
82248;SDS011;71851;49.092;18.918;2024-02-26T10:43:11;14.95;;;7.65;;
82248;SDS011;71851;49.092;18.918;2024-02-26T10:46:14;12.35;;;7.28;;
82248;SDS011;71851;49.092;18.918;2024-02-26T10:49:15;13.65;;;9.30;;
82248;SDS011;71851;49.092;18.918;2024-02-26T10:52:19;15.02;;;9.43;;
82248;SDS011;71851;49.092;18.918;2024-02-26T10:58:22;15.20;;;9.68;;
82248;SDS011;71851;49.092;18.918;2024-02-26T11:01:25;12.48;;;8.27;;
82248;SDS011;71851;49.092;18.918;2024-02-26T11:04:29;15.95;;;9.23;;
82248;SDS011;71851;49.092;18.918;2024-02-26T11:07:30;13.45;;;9.02;;
82248;SDS011;71851;49.092;18.918;2024-02-26T11:10:32;14.80;;;8.32;;
82248;SDS011;71851;49.092;18.918;2024-02-26T11:13:32;16.58;;;10.57;;
82248;SDS011;71851;49.092;18.918;2024-02-26T11:16:35;12.38;;;8.07;;
82248;SDS011;71851;49.092;18.918;2024-02-26T11:19:36;12.27;;;7.93;;
82248;SDS011;71851;49.092;18.918;2024-02-26T11:22:38;11.88;;;7.28;;
82248;SDS011;71851;49.092;18.918;2024-02-26T11:25:39;14.23;;;7.50;;
82248;SDS011;71851;49.092;18.918;2024-02-26T11:28:39;13.23;;;9.35;;
82248;SDS011;71851;49.092;18.918;2024-02-26T11:31:41;12.48;;;8.25;;
82248;SDS011;71851;49.092;18.918;2024-02-26T11:34:42;11.38;;;7.95;;
82248;SDS011;71851;49.092;18.918;2024-02-26T11:37:54;15.80;;;9.68;;
82248;SDS011;71851;49.092;18.918;2024-02-26T11:40:56;14.95;;;9.85;;
82248;SDS011;71851;49.092;18.918;2024-02-26T11:43:59;18.17;;;9.65;;
82248;SDS011;71851;49.092;18.918;2024-02-26T11:47:13;16.40;;;9.05;;
82248;SDS011;71851;49.092;18.918;2024-02-26T11:50:34;19.50;;;10.70;;
82248;SDS011;71851;49.092;18.918;2024-02-26T11:53:38;15.77;;;9.25;;
82248;SDS011;71851;49.092;18.918;2024-02-26T11:56:46;17.48;;;11.38;;
82248;SDS011;71851;49.092;18.918;2024-02-26T11:59:48;17.95;;;10.75;;
82248;SDS011;71851;49.092;18.918;2024-02-26T12:02:50;19.70;;;11.77;;
82248;SDS011;71851;49.092;18.918;2024-02-26T12:08:58;22.58;;;13.88;;
82248;SDS011;71851;49.092;18.918;2024-02-26T12:11:59;21.80;;;14.13;;
82248;SDS011;71851;49.092;18.918;2024-02-26T12:15:01;16.85;;;11.70;;
82248;SDS011;71851;49.092;18.918;2024-02-26T12:18:03;16.20;;;9.55;;
82248;SDS011;71851;49.092;18.918;2024-02-26T12:21:05;8.73;;;6.15;;
82248;SDS011;71851;49.092;18.918;2024-02-26T12:24:12;6.18;;;4.45;;
82248;SDS011;71851;49.092;18.918;2024-02-26T12:27:14;6.97;;;4.68;;
82248;SDS011;71851;49.092;18.918;2024-02-26T12:30:17;8.43;;;4.50;;
82248;SDS011;71851;49.092;18.918;2024-02-26T12:33:18;6.60;;;4.13;;
82248;SDS011;71851;49.092;18.918;2024-02-26T12:36:18;7.47;;;4.60;;
82248;SDS011;71851;49.092;18.918;2024-02-26T12:39:19;7.47;;;4.80;;
82248;SDS011;71851;49.092;18.918;2024-02-26T12:42:20;8.82;;;5.85;;
82248;SDS011;71851;49.092;18.918;2024-02-26T12:45:21;6.75;;;5.18;;
82248;SDS011;71851;49.092;18.918;2024-02-26T12:48:22;12.52;;;7.00;;
82248;SDS011;71851;49.092;18.918;2024-02-26T12:51:22;8.48;;;6.30;;
82248;SDS011;71851;49.092;18.918;2024-02-26T12:54:24;8.45;;;4.80;;
82248;SDS011;71851;49.092;18.918;2024-02-26T12:57:24;8.10;;;5.30;;
82248;SDS011;71851;49.092;18.918;2024-02-26T13:00:27;9.48;;;5.60;;
82248;SDS011;71851;49.092;18.918;2024-02-26T13:03:32;8.55;;;5.97;;
82248;SDS011;71851;49.092;18.918;2024-02-26T13:06:35;10.80;;;6.22;;
82248;SDS011;71851;49.092;18.918;2024-02-26T13:09:36;9.90;;;6.88;;
82248;SDS011;71851;49.092;18.918;2024-02-26T13:12:37;12.75;;;6.97;;
82248;SDS011;71851;49.092;18.918;2024-02-26T13:15:50;11.52;;;6.95;;
82248;SDS011;71851;49.092;18.918;2024-02-26T13:19:08;8.98;;;5.95;;
82248;SDS011;71851;49.092;18.918;2024-02-26T13:22:10;12.82;;;7.55;;
82248;SDS011;71851;49.092;18.918;2024-02-26T13:25:10;12.93;;;7.45;;
82248;SDS011;71851;49.092;18.918;2024-02-26T13:34:26;13.55;;;8.18;;
82248;SDS011;71851;49.092;18.918;2024-02-26T13:37:27;14.07;;;8.68;;
82248;SDS011;71851;49.092;18.918;2024-02-26T13:40:28;10.55;;;7.05;;
82248;SDS011;71851;49.092;18.918;2024-02-26T13:43:29;12.40;;;8.07;;
82248;SDS011;71851;49.092;18.918;2024-02-26T13:46:29;10.60;;;7.45;;
82248;SDS011;71851;49.092;18.918;2024-02-26T13:49:30;15.88;;;10.30;;
82248;SDS011;71851;49.092;18.918;2024-02-26T13:52:30;10.43;;;7.38;;
82248;SDS011;71851;49.092;18.918;2024-02-26T13:55:33;20.33;;;11.98;;
82248;SDS011;71851;49.092;18.918;2024-02-26T13:58:34;14.43;;;9.77;;
82248;SDS011;71851;49.092;18.918;2024-02-26T14:01:34;12.32;;;8.95;;
82248;SDS011;71851;49.092;18.918;2024-02-26T14:04:35;10.93;;;7.25;;
82248;SDS011;71851;49.092;18.918;2024-02-26T14:07:36;17.95;;;10.43;;
82248;SDS011;71851;49.092;18.918;2024-02-26T14:10:37;17.10;;;12.75;;
82248;SDS011;71851;49.092;18.918;2024-02-26T14:13:37;23.63;;;13.52;;
82248;SDS011;71851;49.092;18.918;2024-02-26T14:16:38;18.70;;;13.55;;
82248;SDS011;71851;49.092;18.918;2024-02-26T14:19:38;23.13;;;13.82;;
82248;SDS011;71851;49.092;18.918;2024-02-26T14:22:40;13.20;;;9.43;;
82248;SDS011;71851;49.092;18.918;2024-02-26T14:25:41;19.60;;;11.85;;
82248;SDS011;71851;49.092;18.918;2024-02-26T14:28:41;13.98;;;8.68;;
82248;SDS011;71851;49.092;18.918;2024-02-26T14:31:42;14.55;;;9.27;;
82248;SDS011;71851;49.092;18.918;2024-02-26T14:34:43;15.05;;;9.57;;
82248;SDS011;71851;49.092;18.918;2024-02-26T14:37:45;15.90;;;10.10;;
82248;SDS011;71851;49.092;18.918;2024-02-26T14:40:50;15.00;;;10.15;;
82248;SDS011;71851;49.092;18.918;2024-02-26T14:43:51;15.45;;;10.93;;
82248;SDS011;71851;49.092;18.918;2024-02-26T14:46:51;18.42;;;10.68;;
82248;SDS011;71851;49.092;18.918;2024-02-26T14:49:52;16.63;;;11.40;;
82248;SDS011;71851;49.092;18.918;2024-02-26T14:52:53;16.95;;;12.60;;
82248;SDS011;71851;49.092;18.918;2024-02-26T14:55:53;17.17;;;10.85;;
82248;SDS011;71851;49.092;18.918;2024-02-26T14:58:54;15.43;;;10.32;;
82248;SDS011;71851;49.092;18.918;2024-02-26T15:01:54;14.38;;;10.55;;
82248;SDS011;71851;49.092;18.918;2024-02-26T15:04:54;17.70;;;13.45;;
82248;SDS011;71851;49.092;18.918;2024-02-26T15:07:55;15.45;;;10.45;;
82248;SDS011;71851;49.092;18.918;2024-02-26T15:10:56;17.67;;;11.35;;
82248;SDS011;71851;49.092;18.918;2024-02-26T15:13:57;17.88;;;11.38;;
82248;SDS011;71851;49.092;18.918;2024-02-26T15:16:57;17.63;;;12.07;;
82248;SDS011;71851;49.092;18.918;2024-02-26T15:19:57;20.80;;;12.63;;
82248;SDS011;71851;49.092;18.918;2024-02-26T15:23:00;21.60;;;14.07;;
82248;SDS011;71851;49.092;18.918;2024-02-26T15:26:01;29.02;;;17.95;;
82248;SDS011;71851;49.092;18.918;2024-02-26T15:29:01;35.63;;;22.27;;
82248;SDS011;71851;49.092;18.918;2024-02-26T15:32:01;28.02;;;19.00;;
82248;SDS011;71851;49.092;18.918;2024-02-26T15:35:02;33.33;;;20.50;;
82248;SDS011;71851;49.092;18.918;2024-02-26T15:38:03;54.92;;;30.95;;
82248;SDS011;71851;49.092;18.918;2024-02-26T15:41:10;42.58;;;27.10;;
82248;SDS011;71851;49.092;18.918;2024-02-26T15:44:11;28.30;;;19.67;;
82248;SDS011;71851;49.092;18.918;2024-02-26T15:47:12;22.38;;;15.57;;
82248;SDS011;71851;49.092;18.918;2024-02-26T15:50:13;33.40;;;19.58;;
82248;SDS011;71851;49.092;18.918;2024-02-26T15:53:13;29.92;;;17.35;;
82248;SDS011;71851;49.092;18.918;2024-02-26T15:56:15;32.83;;;19.42;;
82248;SDS011;71851;49.092;18.918;2024-02-26T15:59:16;25.40;;;15.23;;
82248;SDS011;71851;49.092;18.918;2024-02-26T16:02:17;34.80;;;18.40;;
82248;SDS011;71851;49.092;18.918;2024-02-26T16:05:18;24.75;;;14.73;;
82248;SDS011;71851;49.092;18.918;2024-02-26T16:08:20;28.27;;;17.58;;
82248;SDS011;71851;49.092;18.918;2024-02-26T16:11:22;26.33;;;15.27;;
82248;SDS011;71851;49.092;18.918;2024-02-26T16:14:32;25.10;;;16.38;;
82248;SDS011;71851;49.092;18.918;2024-02-26T16:17:43;35.30;;;23.30;;
82248;SDS011;71851;49.092;18.918;2024-02-26T16:20:47;30.25;;;19.63;;
82248;SDS011;71851;49.092;18.918;2024-02-26T16:23:48;40.53;;;28.05;;
82248;SDS011;71851;49.092;18.918;2024-02-26T16:26:48;26.25;;;17.88;;
82248;SDS011;71851;49.092;18.918;2024-02-26T16:29:49;29.45;;;20.02;;
82248;SDS011;71851;49.092;18.918;2024-02-26T16:32:49;27.02;;;18.60;;
82248;SDS011;71851;49.092;18.918;2024-02-26T16:35:50;25.73;;;16.23;;
82248;SDS011;71851;49.092;18.918;2024-02-26T16:38:50;23.13;;;15.15;;
82248;SDS011;71851;49.092;18.918;2024-02-26T16:41:50;27.15;;;18.80;;
82248;SDS011;71851;49.092;18.918;2024-02-26T16:44:51;33.63;;;16.02;;
82248;SDS011;71851;49.092;18.918;2024-02-26T16:47:51;25.20;;;16.42;;
82248;SDS011;71851;49.092;18.918;2024-02-26T16:50:52;28.75;;;18.45;;
82248;SDS011;71851;49.092;18.918;2024-02-26T16:53:53;30.48;;;17.45;;
82248;SDS011;71851;49.092;18.918;2024-02-26T16:56:53;25.60;;;16.25;;
82248;SDS011;71851;49.092;18.918;2024-02-26T16:59:54;25.17;;;16.25;;
82248;SDS011;71851;49.092;18.918;2024-02-26T17:02:55;29.15;;;19.05;;
82248;SDS011;71851;49.092;18.918;2024-02-26T17:05:56;27.00;;;16.67;;
82248;SDS011;71851;49.092;18.918;2024-02-26T17:08:58;24.23;;;16.00;;
82248;SDS011;71851;49.092;18.918;2024-02-26T17:12:00;26.90;;;16.77;;
82248;SDS011;71851;49.092;18.918;2024-02-26T17:15:01;26.77;;;16.77;;
82248;SDS011;71851;49.092;18.918;2024-02-26T17:18:01;28.90;;;18.10;;
82248;SDS011;71851;49.092;18.918;2024-02-26T17:21:02;22.38;;;13.45;;
82248;SDS011;71851;49.092;18.918;2024-02-26T17:24:02;28.65;;;17.90;;
82248;SDS011;71851;49.092;18.918;2024-02-26T17:27:03;23.83;;;15.77;;
82248;SDS011;71851;49.092;18.918;2024-02-26T17:30:04;29.02;;;18.30;;
82248;SDS011;71851;49.092;18.918;2024-02-26T17:33:06;29.25;;;17.20;;
82248;SDS011;71851;49.092;18.918;2024-02-26T17:36:06;26.48;;;16.85;;
82248;SDS011;71851;49.092;18.918;2024-02-26T17:39:11;25.67;;;16.38;;
82248;SDS011;71851;49.092;18.918;2024-02-26T17:42:11;18.35;;;11.65;;
82248;SDS011;71851;49.092;18.918;2024-02-26T17:45:12;17.05;;;12.57;;
82248;SDS011;71851;49.092;18.918;2024-02-26T17:48:13;18.40;;;12.00;;